Time;durP1;ratioP1;P1;durP2;ratioP2;P2;SDS_P1;SDS_P2;PMS_P1;PMS_P2;Temp;Humidity;BMP_temperature;BMP_pressure;BME280_temperature;BME280_humidity;BME280_pressure;Samples;Min_cycle;Max_cycle;Signal;HPM_P1;HPM_P2
2021/08/22 00:00:28;;;;;;;6.18;2.78;;;;;;;;;;5062399;28;20095;-81
2021/08/22 00:02:56;;;;;;;7.45;3.05;;;;;;;;;;5045201;28;20047;-81
2021/08/22 00:05:25;;;;;;;3.42;2.63;;;;;;;;;;5054143;28;20055;-80
2021/08/22 00:07:53;;;;;;;6.07;2.70;;;;;;;;;;5043038;28;20049;-81
2021/08/22 00:10:20;;;;;;;3.55;2.50;;;;;;;;;;5068598;28;20074;-81
2021/08/22 00:12:48;;;;;;;8.75;2.60;;;;;;;;;;5071662;28;20076;-80
2021/08/22 00:15:16;;;;;;;4.90;3.00;;;;;;;;;;5068011;28;20135;-81
2021/08/22 00:17:43;;;;;;;4.95;2.55;;;;;;;;;;5073523;28;20127;-81
2021/08/22 00:20:11;;;;;;;3.10;2.38;;;;;;;;;;5076942;28;20095;-81
2021/08/22 00:22:39;;;;;;;6.05;3.10;;;;;;;;;;5071481;28;20052;-81
2021/08/22 00:25:07;;;;;;;3.45;2.53;;;;;;;;;;5071949;28;20048;-81
2021/08/22 00:27:34;;;;;;;7.80;2.55;;;;;;;;;;5059550;28;20131;-80
2021/08/22 00:30:03;;;;;;;4.90;2.50;;;;;;;;;;5059400;28;20127;-81
2021/08/22 00:32:30;;;;;;;3.05;2.38;;;;;;;;;;5071289;28;20059;-81
2021/08/22 00:35:02;;;;;;;6.65;2.33;;;;;;;;;;5073616;28;20131;-81
2021/08/22 00:37:30;;;;;;;5.07;2.50;;;;;;;;;;5079371;28;20052;-80
2021/08/22 00:39:57;;;;;;;7.57;2.40;;;;;;;;;;5071002;28;20768;-80
2021/08/22 00:42:31;;;;;;;3.22;2.38;;;;;;;;;;5069021;28;20471;-80
2021/08/22 00:44:59;;;;;;;5.30;2.95;;;;;;;;;;5065875;28;20560;-79
2021/08/22 00:47:28;;;;;;;5.75;2.75;;;;;;;;;;5070776;28;20048;-80
2021/08/22 00:49:55;;;;;;;5.93;2.75;;;;;;;;;;5070311;28;20181;-81
2021/08/22 00:52:23;;;;;;;7.00;3.00;;;;;;;;;;5069056;28;20127;-79
2021/08/22 00:54:50;;;;;;;5.00;2.50;;;;;;;;;;5071316;28;20564;-81
2021/08/22 00:57:17;;;;;;;4.13;2.80;;;;;;;;;;5059798;28;20128;-81
2021/08/22 00:59:44;;;;;;;5.00;2.72;;;;;;;;;;5053781;28;20080;-81
2021/08/22 01:02:15;;;;;;;3.53;2.70;;;;;;;;;;5056388;28;20053;-80
2021/08/22 01:04:51;;;;;;;3.72;2.55;;;;;;;;;;5042639;28;20559;-80
2021/08/22 01:07:18;;;;;;;;;;;;;;;;;;5076854;28;20040;-80
2021/08/22 01:09:46;;;;;;;13.45;3.35;;;;;;;;;;5062648;28;19963;-81
2021/08/22 01:12:37;;;;;;;8.98;3.13;;;;;;;;;;5071434;28;20061;-81
2021/08/22 01:15:06;;;;;;;11.65;2.80;;;;;;;;;;5063488;28;20119;-81
2021/08/22 01:17:35;;;;;;;4.75;2.60;;;;;;;;;;5053495;28;20048;-80
2021/08/22 01:20:02;;;;;;;7.65;2.47;;;;;;;;;;5053866;28;20060;-81
2021/08/22 01:25:05;;;;;;;5.63;2.83;;;;;;;;;;5008440;28;20148;-80
2021/08/22 01:27:32;;;;;;;10.32;3.10;;;;;;;;;;4995878;28;20564;-81
2021/08/22 01:30:06;;;;;;;4.35;2.92;;;;;;;;;;4997718;28;20069;-80
2021/08/22 01:32:37;;;;;;;3.83;2.60;;;;;;;;;;5013001;28;20054;-80
2021/08/22 01:35:05;;;;;;;4.13;2.95;;;;;;;;;;5003421;28;20081;-80
2021/08/22 01:37:34;;;;;;;7.28;3.15;;;;;;;;;;5022231;28;20573;-81
2021/08/22 01:40:02;;;;;;;4.10;3.05;;;;;;;;;;5007633;28;20121;-81
2021/08/22 01:42:30;;;;;;;6.28;2.72;;;;;;;;;;5009441;28;20074;-80
2021/08/22 01:44:59;;;;;;;5.60;2.70;;;;;;;;;;4996350;28;20066;-81
2021/08/22 01:47:27;;;;;;;4.88;2.97;;;;;;;;;;5018142;28;20121;-80
2021/08/22 01:49:58;;;;;;;5.65;2.60;;;;;;;;;;4998022;28;20046;-81
2021/08/22 01:52:26;;;;;;;6.43;2.97;;;;;;;;;;5009578;28;20089;-81
2021/08/22 01:54:54;;;;;;;4.07;2.70;;;;;;;;;;5011271;28;20105;-81
2021/08/22 01:57:21;;;;;;;7.85;3.00;;;;;;;;;;4995400;28;20080;-80
2021/08/22 01:59:50;;;;;;;5.85;2.83;;;;;;;;;;5004715;28;20514;-82
2021/08/22 02:02:17;;;;;;;4.25;2.78;;;;;;;;;;4999661;28;20161;-81
2021/08/22 02:04:55;;;;;;;5.10;2.58;;;;;;;;;;5004823;28;20088;-81
2021/08/22 02:07:26;;;;;;;5.60;3.13;;;;;;;;;;5016685;28;20080;-81
2021/08/22 02:09:56;;;;;;;5.10;2.90;;;;;;;;;;5002900;28;20562;-81
2021/08/22 02:12:23;;;;;;;6.25;3.20;;;;;;;;;;5014105;28;20109;-80
2021/08/22 02:15:01;;;;;;;4.90;3.25;;;;;;;;;;5019084;28;20125;-80
2021/08/22 02:17:36;;;;;;;;;;;;;;;;;;5008561;28;20049;-81
2021/08/22 02:20:06;;;;;;;8.32;3.13;;;;;;;;;;5013318;28;19925;-80
2021/08/22 02:22:36;;;;;;;8.02;3.33;;;;;;;;;;4997878;28;20050;-80
2021/08/22 02:25:05;;;;;;;5.60;3.10;;;;;;;;;;5025285;28;20521;-81
2021/08/22 02:27:34;;;;;;;6.57;3.45;;;;;;;;;;5009471;28;20073;-80
2021/08/22 02:30:03;;;;;;;8.82;3.45;;;;;;;;;;5011517;28;20109;-80
2021/08/22 02:32:31;;;;;;;4.57;3.22;;;;;;;;;;4996379;28;20832;-81
2021/08/22 02:35:00;;;;;;;7.10;3.22;;;;;;;;;;4992224;28;20078;-81
2021/08/22 02:37:28;;;;;;;8.73;3.00;;;;;;;;;;5013952;28;20054;-81
2021/08/22 02:39:58;;;;;;;6.15;3.20;;;;;;;;;;5011222;28;20047;-81
2021/08/22 02:42:25;;;;;;;14.23;3.83;;;;;;;;;;5013462;28;20514;-81
2021/08/22 02:44:52;;;;;;;4.82;2.80;;;;;;;;;;5017946;28;20073;-81
2021/08/22 02:47:20;;;;;;;7.10;3.05;;;;;;;;;;5013943;28;20072;-80
2021/08/22 02:49:47;;;;;;;7.13;3.28;;;;;;;;;;4997427;28;20157;-80
2021/08/22 02:52:14;;;;;;;10.05;3.38;;;;;;;;;;5009260;28;20466;-80
2021/08/22 02:54:42;;;;;;;6.97;2.97;;;;;;;;;;4991859;28;20088;-80
2021/08/22 02:57:09;;;;;;;7.72;2.90;;;;;;;;;;5033106;28;20089;-80
2021/08/22 02:59:36;;;;;;;18.42;3.53;;;;;;;;;;5000525;28;20128;-80
2021/08/22 03:02:05;;;;;;;8.95;3.60;;;;;;;;;;5017579;28;20129;-81
2021/08/22 03:04:36;;;;;;;5.03;3.13;;;;;;;;;;5010349;28;20046;-81
2021/08/22 03:07:05;;;;;;;5.80;3.15;;;;;;;;;;5008267;28;20061;-81
2021/08/22 03:09:32;;;;;;;8.38;3.42;;;;;;;;;;4996056;28;20128;-80
2021/08/22 03:12:00;;;;;;;7.72;4.10;;;;;;;;;;5012376;28;20747;-80
2021/08/22 03:14:28;;;;;;;4.88;3.53;;;;;;;;;;5004118;28;20467;-80
2021/08/22 03:16:55;;;;;;;6.93;3.17;;;;;;;;;;4995844;28;20085;-81
2021/08/22 03:19:22;;;;;;;7.55;3.33;;;;;;;;;;5013222;28;20140;-80
2021/08/22 03:21:50;;;;;;;7.80;3.53;;;;;;;;;;4996201;28;20092;-79
2021/08/22 03:24:18;;;;;;;5.22;3.42;;;;;;;;;;5008092;28;20081;-80
2021/08/22 03:26:45;;;;;;;7.10;3.50;;;;;;;;;;4994558;28;20092;-79
2021/08/22 03:29:14;;;;;;;5.55;3.50;;;;;;;;;;5007976;28;20149;-80
2021/08/22 03:31:47;;;;;;;5.68;3.45;;;;;;;;;;5012762;28;20108;-80
2021/08/22 03:34:23;;;;;;;7.95;3.28;;;;;;;;;;4997068;28;20049;-81
2021/08/22 03:36:53;;;;;;;5.15;3.58;;;;;;;;;;5013630;28;20146;-81
2021/08/22 03:39:23;;;;;;;7.80;3.28;;;;;;;;;;5010465;28;20053;-81
2021/08/22 03:41:50;;;;;;;5.40;3.30;;;;;;;;;;5013558;28;20050;-81
2021/08/22 03:44:18;;;;;;;5.63;3.65;;;;;;;;;;5001067;28;20156;-82
2021/08/22 03:46:46;;;;;;;6.78;3.65;;;;;;;;;;5002718;28;20062;-81
2021/08/22 03:49:16;;;;;;;6.35;4.00;;;;;;;;;;5008225;28;20486;-80
2021/08/22 03:51:49;;;;;;;5.40;4.00;;;;;;;;;;5002928;28;20050;-80
2021/08/22 03:54:16;;;;;;;7.35;3.88;;;;;;;;;;5010908;28;20057;-80
2021/08/22 03:56:46;;;;;;;7.95;4.15;;;;;;;;;;5017849;28;20088;-80
2021/08/22 03:59:13;;;;;;;10.00;4.25;;;;;;;;;;4996066;28;20156;-80
2021/08/22 04:01:40;;;;;;;7.80;4.03;;;;;;;;;;5000027;28;20153;-81
2021/08/22 04:04:08;;;;;;;12.15;4.60;;;;;;;;;;4999737;28;20049;-80
2021/08/22 04:06:37;;;;;;;7.40;4.32;;;;;;;;;;5009146;28;20483;-81
2021/08/22 04:09:07;;;;;;;7.22;4.10;;;;;;;;;;5007023;28;20049;-80
2021/08/22 04:11:35;;;;;;;9.63;4.80;;;;;;;;;;4991605;28;20120;-80
2021/08/22 04:14:02;;;;;;;6.82;4.90;;;;;;;;;;5006457;28;20525;-80
2021/08/22 04:16:29;;;;;;;9.40;4.75;;;;;;;;;;5009219;28;20074;-80
2021/08/22 04:18:58;;;;;;;10.60;5.00;;;;;;;;;;5010891;28;20061;-80
2021/08/22 04:21:25;;;;;;;10.73;5.00;;;;;;;;;;5010313;28;20140;-80
2021/08/22 04:23:53;;;;;;;7.50;4.82;;;;;;;;;;5011242;28;20050;-80
2021/08/22 04:26:20;;;;;;;10.63;5.07;;;;;;;;;;5001610;28;20057;-80
2021/08/22 04:28:47;;;;;;;10.65;5.65;;;;;;;;;;4998529;28;20045;-80
2021/08/22 04:31:15;;;;;;;13.88;6.43;;;;;;;;;;4992648;28;20053;-80
2021/08/22 04:33:43;;;;;;;10.73;6.28;;;;;;;;;;5014517;28;20132;-80
2021/08/22 04:36:11;;;;;;;11.57;5.55;;;;;;;;;;4995700;28;20054;-79
2021/08/22 04:38:39;;;;;;;12.77;6.07;;;;;;;;;;4992668;28;20093;-78
2021/08/22 04:41:06;;;;;;;15.80;6.72;;;;;;;;;;4999021;28;20054;-78
2021/08/22 04:43:33;;;;;;;10.55;6.13;;;;;;;;;;5007033;28;20161;-78
2021/08/22 04:46:01;;;;;;;10.80;6.28;;;;;;;;;;5009072;28;20107;-80
2021/08/22 04:48:31;;;;;;;10.77;6.93;;;;;;;;;;5009807;28;20723;-80
2021/08/22 04:50:59;;;;;;;10.10;6.50;;;;;;;;;;4998517;28;20046;-80
2021/08/22 04:53:27;;;;;;;10.02;6.40;;;;;;;;;;5011419;28;20557;-79
2021/08/22 04:55:55;;;;;;;11.18;6.40;;;;;;;;;;5011002;28;20049;-79
2021/08/22 04:58:24;;;;;;;16.08;6.95;;;;;;;;;;5008285;28;20137;-80
2021/08/22 05:00:52;;;;;;;13.75;6.40;;;;;;;;;;5011473;28;20084;-80
2021/08/22 05:03:22;;;;;;;12.82;6.72;;;;;;;;;;5008434;28;20057;-81
2021/08/22 05:05:50;;;;;;;10.75;5.68;;;;;;;;;;5007984;28;20049;-80
2021/08/22 05:08:21;;;;;;;12.90;6.50;;;;;;;;;;4987744;28;20050;-81
2021/08/22 05:10:50;;;;;;;12.43;6.55;;;;;;;;;;5006093;28;20057;-80
2021/08/22 05:13:18;;;;;;;12.82;5.28;;;;;;;;;;4985971;28;20546;-80
2021/08/22 05:15:46;;;;;;;7.28;4.60;;;;;;;;;;5008497;28;20442;-81
2021/08/22 05:18:14;;;;;;;11.00;4.65;;;;;;;;;;5017969;22;20104;-78
2021/08/22 05:20:41;;;;;;;9.95;4.75;;;;;;;;;;4988069;28;20049;-79
2021/08/22 05:23:08;;;;;;;8.63;4.65;;;;;;;;;;5006244;28;20138;-79
2021/08/22 05:25:54;;;;;;;8.27;3.95;;;;;;;;;;5007829;28;20101;-79
2021/08/22 05:28:23;;;;;;;7.50;3.58;;;;;;;;;;5009247;28;20090;-80
2021/08/22 05:30:50;;;;;;;7.00;3.58;;;;;;;;;;5009156;28;20077;-80
2021/08/22 05:33:17;;;;;;;16.88;3.70;;;;;;;;;;5009090;28;20061;-80
2021/08/22 05:35:44;;;;;;;4.53;3.17;;;;;;;;;;4976780;28;20142;-80
2021/08/22 05:38:11;;;;;;;6.80;3.45;;;;;;;;;;5007888;28;20077;-80
2021/08/22 05:40:39;;;;;;;10.35;3.63;;;;;;;;;;4985098;28;20531;-80
2021/08/22 05:43:09;;;;;;;5.43;2.70;;;;;;;;;;4993656;28;20117;-80
2021/08/22 05:45:37;;;;;;;7.63;2.80;;;;;;;;;;4995966;28;20741;-80
2021/08/22 05:48:05;;;;;;;6.47;3.08;;;;;;;;;;4994649;28;20100;-80
2021/08/22 05:50:32;;;;;;;9.02;2.97;;;;;;;;;;4995179;28;20784;-79
2021/08/22 05:52:59;;;;;;;6.00;2.92;;;;;;;;;;4991118;28;20425;-78
2021/08/22 05:55:27;;;;;;;4.47;2.30;;;;;;;;;;4987976;28;20553;-78
2021/08/22 05:57:54;;;;;;;12.30;3.17;;;;;;;;;;4987364;28;20054;-78
2021/08/22 06:00:21;;;;;;;4.95;2.20;;;;;;;;;;4982772;28;20147;-78
2021/08/22 06:02:48;;;;;;;6.10;2.58;;;;;;;;;;5003746;28;20073;-78
2021/08/22 06:05:16;;;;;;;4.78;2.30;;;;;;;;;;5005128;28;20113;-79
2021/08/22 06:07:45;;;;;;;4.10;2.50;;;;;;;;;;5006493;28;20148;-79
2021/08/22 06:10:13;;;;;;;4.72;1.92;;;;;;;;;;5008067;28;20069;-79
2021/08/22 06:12:41;;;;;;;10.63;2.92;;;;;;;;;;5007874;28;20056;-78
2021/08/22 06:15:09;;;;;;;4.45;1.65;;;;;;;;;;4988745;28;20088;-79
2021/08/22 06:17:37;;;;;;;2.42;1.98;;;;;;;;;;5004375;28;20148;-79
2021/08/22 06:20:05;;;;;;;2.53;1.83;;;;;;;;;;5003046;28;20621;-79
2021/08/22 06:22:32;;;;;;;5.53;1.92;;;;;;;;;;5002760;28;20141;-79
2021/08/22 06:24:59;;;;;;;2.85;2.05;;;;;;;;;;4990508;28;20456;-79
2021/08/22 06:27:26;;;;;;;3.65;1.83;;;;;;;;;;5003350;28;20140;-79
2021/08/22 06:29:54;;;;;;;4.95;2.05;;;;;;;;;;5005859;28;20149;-79
2021/08/22 06:32:23;;;;;;;2.78;2.08;;;;;;;;;;5002840;28;20053;-79
2021/08/22 06:34:52;;;;;;;6.85;2.20;;;;;;;;;;4988312;28;20062;-79
2021/08/22 06:37:20;;;;;;;5.75;2.10;;;;;;;;;;5009911;28;20080;-79
2021/08/22 06:39:49;;;;;;;4.82;2.00;;;;;;;;;;5006830;28;20523;-78
2021/08/22 06:42:17;;;;;;;4.03;2.20;;;;;;;;;;4988302;28;20418;-79
2021/08/22 06:44:44;;;;;;;2.65;1.80;;;;;;;;;;5008906;28;20137;-79
2021/08/22 06:47:12;;;;;;;3.75;1.95;;;;;;;;;;5004739;28;20065;-79
2021/08/22 06:49:39;;;;;;;7.22;2.38;;;;;;;;;;4995229;28;20088;-80
2021/08/22 06:52:07;;;;;;;3.28;1.90;;;;;;;;;;4987724;28;20053;-79
2021/08/22 06:54:35;;;;;;;4.82;1.80;;;;;;;;;;4989248;28;20074;-80
2021/08/22 06:57:05;;;;;;;9.88;2.30;;;;;;;;;;4998299;28;20080;-79
2021/08/22 06:59:35;;;;;;;3.78;2.25;;;;;;;;;;4993424;28;20829;-80
2021/08/22 07:02:05;;;;;;;8.30;2.53;;;;;;;;;;4983783;28;20836;-82
2021/08/22 07:04:35;;;;;;;3.38;1.80;;;;;;;;;;4996689;28;20052;-80
2021/08/22 07:07:02;;;;;;;7.00;2.55;;;;;;;;;;4994588;28;20082;-79
2021/08/22 07:09:29;;;;;;;4.53;2.10;;;;;;;;;;4991917;28;20130;-81
2021/08/22 07:11:57;;;;;;;6.47;2.17;;;;;;;;;;4996962;28;20085;-80
2021/08/22 07:14:24;;;;;;;4.03;2.17;;;;;;;;;;4992601;28;20537;-79
2021/08/22 07:16:51;;;;;;;4.47;2.17;;;;;;;;;;4999852;28;20094;-78
2021/08/22 07:19:18;;;;;;;6.90;2.17;;;;;;;;;;4998267;28;20596;-78
2021/08/22 07:21:46;;;;;;;4.47;2.28;;;;;;;;;;5000940;28;20125;-78
2021/08/22 07:24:14;;;;;;;5.82;2.25;;;;;;;;;;5010988;28;20077;-83
2021/08/22 07:26:42;;;;;;;8.73;2.38;;;;;;;;;;4995308;28;20045;-82
2021/08/22 07:29:09;;;;;;;9.38;3.13;;;;;;;;;;5012652;28;20096;-80
2021/08/22 07:31:37;;;;;;;5.60;1.95;;;;;;;;;;4994548;28;20077;-81
2021/08/22 07:34:05;;;;;;;3.10;1.83;;;;;;;;;;4997579;28;20082;-81
2021/08/22 07:36:33;;;;;;;3.55;1.92;;;;;;;;;;4993782;28;20058;-81
2021/08/22 07:39:02;;;;;;;4.63;2.08;;;;;;;;;;4989966;28;20564;-79
2021/08/22 07:41:31;;;;;;;3.92;1.98;;;;;;;;;;4992527;28;20046;-79
2021/08/22 07:43:58;;;;;;;4.00;2.15;;;;;;;;;;5003914;28;20473;-79
2021/08/22 07:46:25;;;;;;;4.20;1.90;;;;;;;;;;4990458;28;20149;-78
2021/08/22 07:48:53;;;;;;;5.45;1.85;;;;;;;;;;4987957;28;20470;-78
2021/08/22 07:51:21;;;;;;;6.45;2.53;;;;;;;;;;5004854;28;20164;-80
2021/08/22 07:53:49;;;;;;;5.97;2.03;;;;;;;;;;5004975;28;20398;-79
2021/08/22 07:56:16;;;;;;;4.25;1.58;;;;;;;;;;5006109;28;20207;-80
2021/08/22 07:58:43;;;;;;;6.93;2.38;;;;;;;;;;4990157;28;20791;-80
2021/08/22 08:01:10;;;;;;;5.65;2.00;;;;;;;;;;4989974;28;20061;-80
2021/08/22 08:03:38;;;;;;;4.40;2.22;;;;;;;;;;4992829;28;20049;-82
2021/08/22 08:06:06;;;;;;;4.70;1.95;;;;;;;;;;4989838;28;20049;-80
2021/08/22 08:08:36;;;;;;;6.32;2.00;;;;;;;;;;4985937;28;20050;-82
2021/08/22 08:11:06;;;;;;;5.03;1.90;;;;;;;;;;4991564;28;20053;-79
2021/08/22 08:13:33;;;;;;;4.43;1.77;;;;;;;;;;4990425;28;20141;-80
2021/08/22 08:16:01;;;;;;;5.05;2.03;;;;;;;;;;5009226;28;20461;-82
2021/08/22 08:18:30;;;;;;;3.65;1.83;;;;;;;;;;5009300;28;20064;-80
2021/08/22 08:21:00;;;;;;;4.07;1.80;;;;;;;;;;5007336;28;20059;-79
2021/08/22 08:23:28;;;;;;;8.90;1.83;;;;;;;;;;5005166;28;20115;-79
2021/08/22 08:25:55;;;;;;;4.47;1.98;;;;;;;;;;4999027;28;20165;-78
2021/08/22 08:28:22;;;;;;;4.35;1.90;;;;;;;;;;5003718;28;20146;-78
2021/08/22 08:30:50;;;;;;;5.07;2.00;;;;;;;;;;5003943;28;20499;-78
2021/08/22 08:33:17;;;;;;;6.93;1.77;;;;;;;;;;5001349;28;20487;-78
2021/08/22 08:35:45;;;;;;;3.15;1.90;;;;;;;;;;4998744;28;20064;-78
2021/08/22 08:38:13;;;;;;;8.15;2.75;;;;;;;;;;4997086;28;20062;-79
2021/08/22 08:40:41;;;;;;;5.20;1.92;;;;;;;;;;4997351;28;20052;-79
2021/08/22 08:43:10;;;;;;;3.78;1.63;;;;;;;;;;4980907;28;20046;-79
2021/08/22 08:45:42;;;;;;;4.03;1.80;;;;;;;;;;4978053;28;20107;-79
2021/08/22 08:48:11;;;;;;;4.20;1.92;;;;;;;;;;4994930;28;20841;-79
2021/08/22 08:50:41;;;;;;;5.03;1.67;;;;;;;;;;4977295;28;20046;-79
2021/08/22 08:53:19;;;;;;;5.45;1.80;;;;;;;;;;4997310;28;20060;-80
2021/08/22 08:55:54;;;;;;;6.90;1.60;;;;;;;;;;4996973;28;20057;-78
2021/08/22 08:58:22;;;;;;;5.80;1.83;;;;;;;;;;4995617;28;20173;-78
2021/08/22 09:00:49;;;;;;;4.35;1.77;;;;;;;;;;4994132;28;20521;-78
2021/08/22 09:03:19;;;;;;;4.72;1.67;;;;;;;;;;4976639;28;20065;-79
2021/08/22 09:05:52;;;;;;;6.88;1.70;;;;;;;;;;4976691;28;20054;-77
2021/08/22 09:08:31;;;;;;;4.57;1.75;;;;;;;;;;4996871;28;20510;-77
2021/08/22 09:11:14;;;;;;;4.00;1.58;;;;;;;;;;4977644;28;20065;-77
2021/08/22 09:14:00;;;;;;;6.85;1.70;;;;;;;;;;4991853;28;20133;-77
2021/08/22 09:16:42;;;;;;;3.28;1.55;;;;;;;;;;4996241;28;20177;-78
2021/08/22 09:19:29;;;;;;;2.88;1.52;;;;;;;;;;4980902;28;20109;-78
2021/08/22 09:22:15;;;;;;;6.50;1.33;;;;;;;;;;4996700;28;20160;-78
2021/08/22 09:25:01;;;;;;;3.17;1.58;;;;;;;;;;4997061;28;20580;-78
2021/08/22 09:27:48;;;;;;;4.07;2.08;;;;;;;;;;4982629;28;20062;-78
2021/08/22 09:30:42;;;;;;;6.32;1.75;;;;;;;;;;4978448;28;20061;-78
2021/08/22 09:33:09;;;;;;;3.22;1.50;;;;;;;;;;4999262;28;20053;-79
2021/08/22 09:35:55;;;;;;;7.00;1.50;;;;;;;;;;4998533;28;20136;-78
2021/08/22 09:38:23;;;;;;;3.20;1.38;;;;;;;;;;4999536;28;20553;-77
2021/08/22 09:40:56;;;;;;;9.80;1.73;;;;;;;;;;5000978;28;20050;-77
2021/08/22 09:43:43;;;;;;;20.08;3.05;;;;;;;;;;5000663;28;20123;-77
2021/08/22 09:46:29;;;;;;;4.63;1.40;;;;;;;;;;4952027;28;20081;-79
2021/08/22 09:48:58;;;;;;;1.67;1.20;;;;;;;;;;5002437;28;20056;-80
2021/08/22 09:51:45;;;;;;;6.63;1.63;;;;;;;;;;5004999;28;20077;-79
2021/08/22 09:54:31;;;;;;;5.95;1.77;;;;;;;;;;4987410;28;20089;-80
2021/08/22 09:57:17;;;;;;;3.22;1.95;;;;;;;;;;5004854;28;20716;-79
2021/08/22 10:00:01;;;;;;;1.98;1.27;;;;;;;;;;5004579;28;20057;-78
2021/08/22 10:02:52;;;;;;;3.42;1.65;;;;;;;;;;5008862;28;20140;-80
2021/08/22 10:05:20;;;;;;;7.68;1.90;;;;;;;;;;4983022;28;20097;-80
2021/08/22 10:07:47;;;;;;;3.17;1.50;;;;;;;;;;5009651;28;20167;-82
2021/08/22 10:13:07;;;;;;;2.92;1.50;;;;;;;;;;5013893;28;20582;-80
2021/08/22 10:15:42;;;;;;;3.42;1.50;;;;;;;;;;4995112;28;20805;-79
2021/08/22 10:18:10;;;;;;;1.65;1.20;;;;;;;;;;5012372;28;20088;-81
2021/08/22 10:20:45;;;;;;;5.45;1.75;;;;;;;;;;5012843;28;20132;-79
2021/08/22 10:23:32;;;;;;;4.55;1.90;;;;;;;;;;4994203;28;20046;-78
2021/08/22 10:26:00;;;;;;;3.65;1.60;;;;;;;;;;5004706;28;20033;-78
2021/08/22 10:28:54;;;;;;;4.80;2.03;;;;;;;;;;5011890;28;20046;-83
2021/08/22 10:32:02;;;;;;;4.55;1.83;;;;;;;;;;5010094;28;20072;-80
2021/08/22 10:34:30;;;;;;;2.58;1.70;;;;;;;;;;4900076;29;20051;-80
2021/08/22 10:36:57;;;;;;;7.40;1.90;;;;;;;;;;4913833;29;20052;-81
2021/08/22 10:39:25;;;;;;;4.90;2.63;;;;;;;;;;4947491;28;20054;-82
2021/08/22 10:41:59;;;;;;;4.20;2.40;;;;;;;;;;4991719;28;20080;-82
2021/08/22 10:44:39;;;;;;;3.58;1.88;;;;;;;;;;4989553;28;20787;-80
2021/08/22 10:47:07;;;;;;;3.78;1.80;;;;;;;;;;4986037;28;20149;-79
2021/08/22 10:49:53;;;;;;;5.47;1.80;;;;;;;;;;5002346;28;20069;-80
2021/08/22 10:52:29;;;;;;;3.15;1.58;;;;;;;;;;5009317;28;20092;-79
2021/08/22 10:55:15;;;;;;;7.15;2.05;;;;;;;;;;5011945;28;20045;-80
2021/08/22 10:57:42;;;;;;;4.57;1.50;;;;;;;;;;4995395;28;20153;-80
2021/08/22 11:00:19;;;;;;;1.77;1.13;;;;;;;;;;5012674;28;20117;-79
2021/08/22 11:02:47;;;;;;;5.47;1.60;;;;;;;;;;4988438;28;20119;-80
2021/08/22 11:05:16;;;;;;;7.40;1.48;;;;;;;;;;5013032;28;20049;-79
2021/08/22 11:07:46;;;;;;;4.20;1.60;;;;;;;;;;5013089;28;20108;-80
2021/08/22 11:10:17;;;;;;;3.47;2.00;;;;;;;;;;4995139;28;20069;-80
2021/08/22 11:12:44;;;;;;;5.63;1.70;;;;;;;;;;4994355;28;20624;-79
2021/08/22 11:15:22;;;;;;;4.28;1.35;;;;;;;;;;4988107;28;20137;-80
2021/08/22 11:17:59;;;;;;;6.65;1.80;;;;;;;;;;4992468;28;20078;-80
2021/08/22 11:20:29;;;;;;;5.20;1.45;;;;;;;;;;4986060;28;20137;-80
2021/08/22 11:23:17;;;;;;;5.75;3.13;;;;;;;;;;5012660;28;20112;-80
2021/08/22 11:25:45;;;;;;;4.97;1.58;;;;;;;;;;4996209;28;20122;-81
2021/08/22 11:28:18;;;;;;;4.70;1.35;;;;;;;;;;4996257;28;20153;-80
2021/08/22 11:30:45;;;;;;;3.83;1.70;;;;;;;;;;4995543;28;20138;-79
2021/08/22 11:33:14;;;;;;;5.85;1.85;;;;;;;;;;5012980;28;20064;-79
2021/08/22 11:35:49;;;;;;;5.43;1.50;;;;;;;;;;5012539;28;20085;-79
2021/08/22 11:38:21;;;;;;;4.47;1.50;;;;;;;;;;5012406;28;20148;-79
2021/08/22 11:40:59;;;;;;;4.20;1.92;;;;;;;;;;5011071;28;20845;-79
2021/08/22 11:43:27;;;;;;;3.13;1.65;;;;;;;;;;5011629;28;20074;-79
2021/08/22 11:45:56;;;;;;;7.53;1.67;;;;;;;;;;5005153;28;20642;-80
2021/08/22 11:48:27;;;;;;;3.80;1.60;;;;;;;;;;4994657;28;20104;-79
2021/08/22 11:51:05;;;;;;;2.85;1.70;;;;;;;;;;4993877;28;20594;-81
2021/08/22 11:53:33;;;;;;;3.25;1.30;;;;;;;;;;5011157;28;20107;-79
2021/08/22 11:56:01;;;;;;;3.78;1.13;;;;;;;;;;5007168;28;20053;-81
2021/08/22 11:58:34;;;;;;;3.25;1.40;;;;;;;;;;5009240;28;20046;-80
2021/08/22 12:01:18;;;;;;;7.32;1.70;;;;;;;;;;5011716;28;20084;-80
2021/08/22 12:04:03;;;;;;;2.92;1.33;;;;;;;;;;5011928;28;20702;-80
2021/08/22 12:06:31;;;;;;;2.88;1.33;;;;;;;;;;4993651;28;20077;-80
2021/08/22 12:09:00;;;;;;;2.13;1.30;;;;;;;;;;4988449;28;20133;-80
2021/08/22 12:11:32;;;;;;;6.28;1.38;;;;;;;;;;5012443;28;20077;-80
2021/08/22 12:14:13;;;;;;;4.00;1.30;;;;;;;;;;4989883;28;20132;-80
2021/08/22 12:16:40;;;;;;;5.93;1.70;;;;;;;;;;4990006;28;20160;-80
2021/08/22 12:19:21;;;;;;;3.17;1.33;;;;;;;;;;4991275;28;20046;-80
2021/08/22 12:21:48;;;;;;;3.40;1.15;;;;;;;;;;5001851;28;20141;-79
2021/08/22 12:24:20;;;;;;;2.75;1.23;;;;;;;;;;4990514;28;20519;-80
2021/08/22 12:26:51;;;;;;;7.10;1.70;;;;;;;;;;4982654;28;20084;-80
2021/08/22 12:29:25;;;;;;;2.92;1.55;;;;;;;;;;5009743;28;20092;-79
2021/08/22 12:31:55;;;;;;;3.67;1.20;;;;;;;;;;4988672;28;20081;-80
2021/08/22 12:34:23;;;;;;;2.88;1.23;;;;;;;;;;5003026;28;20495;-80
2021/08/22 12:36:51;;;;;;;5.53;1.60;;;;;;;;;;5005974;28;20054;-79
2021/08/22 12:39:19;;;;;;;2.78;1.25;;;;;;;;;;5005004;28;20675;-80
2021/08/22 12:41:48;;;;;;;4.18;1.38;;;;;;;;;;4987960;28;20148;-80
2021/08/22 12:44:35;;;;;;;8.88;1.48;;;;;;;;;;4988939;28;20565;-79
2021/08/22 12:47:03;;;;;;;3.65;1.27;;;;;;;;;;5004173;28;20133;-80
2021/08/22 12:49:32;;;;;;;3.63;1.67;;;;;;;;;;5003641;28;20059;-80
2021/08/22 12:52:02;;;;;;;3.85;1.70;;;;;;;;;;4986491;28;20078;-80
2021/08/22 12:54:30;;;;;;;2.50;1.30;;;;;;;;;;4993588;28;20073;-79
2021/08/22 12:56:57;;;;;;;6.82;1.50;;;;;;;;;;5009904;28;20078;-80
2021/08/22 12:59:25;;;;;;;4.07;1.50;;;;;;;;;;5010771;28;20137;-79
2021/08/22 13:01:53;;;;;;;3.65;1.40;;;;;;;;;;4994069;28;20054;-79
2021/08/22 13:04:22;;;;;;;3.00;1.50;;;;;;;;;;5003899;28;20045;-79
2021/08/22 13:06:49;;;;;;;6.60;1.38;;;;;;;;;;5012129;28;20108;-79
2021/08/22 13:09:17;;;;;;;3.40;1.55;;;;;;;;;;4991701;28;20100;-79
2021/08/22 13:11:47;;;;;;;4.22;1.40;;;;;;;;;;4993255;28;20181;-79
2021/08/22 13:14:16;;;;;;;5.30;2.10;;;;;;;;;;4993581;28;20554;-79
2021/08/22 13:16:43;;;;;;;5.38;1.30;;;;;;;;;;5010327;28;20140;-79
2021/08/22 13:19:10;;;;;;;4.65;1.90;;;;;;;;;;5010796;28;20058;-79
2021/08/22 13:21:37;;;;;;;3.20;1.80;;;;;;;;;;4992137;28;20152;-79
2021/08/22 13:24:05;;;;;;;5.38;2.08;;;;;;;;;;5007451;28;20439;-79
2021/08/22 13:26:32;;;;;;;4.88;1.83;;;;;;;;;;4989174;28;20085;-79
2021/08/22 13:29:04;;;;;;;3.35;1.85;;;;;;;;;;4989747;28;20104;-79
2021/08/22 13:31:31;;;;;;;5.82;1.63;;;;;;;;;;4991145;28;20137;-80
2021/08/22 13:33:59;;;;;;;2.25;1.63;;;;;;;;;;5005316;28;20060;-79
2021/08/22 13:36:26;;;;;;;7.13;1.70;;;;;;;;;;4993935;28;20395;-80
2021/08/22 13:38:54;;;;;;;3.58;1.50;;;;;;;;;;4996555;28;20448;-80
2021/08/22 13:41:25;;;;;;;5.93;2.90;;;;;;;;;;5009786;28;20426;-78
2021/08/22 13:43:52;;;;;;;2.95;1.52;;;;;;;;;;4989193;28;20096;-81
2021/08/22 13:46:20;;;;;;;7.28;1.77;;;;;;;;;;4988926;28;20049;-80
2021/08/22 13:48:48;;;;;;;3.15;1.73;;;;;;;;;;5008560;28;20104;-81
2021/08/22 13:51:18;;;;;;;6.50;1.67;;;;;;;;;;4994287;28;20120;-80
2021/08/22 13:53:45;;;;;;;3.47;1.70;;;;;;;;;;4993289;28;20805;-79
2021/08/22 13:56:16;;;;;;;3.30;1.65;;;;;;;;;;5010100;28;20446;-80
2021/08/22 13:58:43;;;;;;;6.88;1.70;;;;;;;;;;4991413;28;20042;-78
2021/08/22 14:01:10;;;;;;;7.75;2.17;;;;;;;;;;5008116;28;20093;-77
2021/08/22 14:03:39;;;;;;;3.00;1.63;;;;;;;;;;4989755;28;20085;-78
2021/08/22 14:06:07;;;;;;;6.97;1.85;;;;;;;;;;5014397;28;20120;-81
2021/08/22 14:08:34;;;;;;;8.15;2.10;;;;;;;;;;4996299;28;20073;-79
2021/08/22 14:11:10;;;;;;;5.13;1.65;;;;;;;;;;5014567;28;20068;-80
2021/08/22 14:13:38;;;;;;;;;;;;;;;;;;4997880;28;20116;-82
2021/08/22 14:16:05;;;;;;;5.18;1.80;;;;;;;;;;4996989;28;19926;-81
2021/08/22 14:18:33;;;;;;;4.78;1.88;;;;;;;;;;5014276;28;20770;-81
2021/08/22 14:21:01;;;;;;;5.10;1.77;;;;;;;;;;4994382;28;20056;-80
2021/08/22 14:23:29;;;;;;;7.22;2.03;;;;;;;;;;4996509;28;20157;-81
2021/08/22 14:25:57;;;;;;;4.63;1.60;;;;;;;;;;5013289;28;20148;-81
2021/08/22 14:28:25;;;;;;;3.75;1.77;;;;;;;;;;5012264;28;20073;-80
2021/08/22 14:30:56;;;;;;;2.75;1.80;;;;;;;;;;5012077;28;20469;-80
2021/08/22 14:33:26;;;;;;;3.45;1.85;;;;;;;;;;5011526;28;20651;-80
2021/08/22 14:35:54;;;;;;;4.40;1.98;;;;;;;;;;5013418;28;20050;-80
2021/08/22 14:38:21;;;;;;;5.18;1.42;;;;;;;;;;4995986;28;20133;-80
2021/08/22 14:40:48;;;;;;;9.40;1.90;;;;;;;;;;5014443;28;20076;-81
2021/08/22 14:43:18;;;;;;;4.20;1.73;;;;;;;;;;4996550;28;20061;-81
2021/08/22 14:45:47;;;;;;;3.40;1.88;;;;;;;;;;4995890;28;20069;-81
2021/08/22 14:48:15;;;;;;;5.20;1.42;;;;;;;;;;5012846;28;20053;-82
2021/08/22 14:50:43;;;;;;;5.38;2.10;;;;;;;;;;5012398;28;20077;-81
2021/08/22 14:53:12;;;;;;;4.28;2.10;;;;;;;;;;5013365;28;20137;-81
2021/08/22 14:55:49;;;;;;;5.93;1.85;;;;;;;;;;5012191;28;20128;-81
2021/08/22 14:58:16;;;;;;;3.95;1.95;;;;;;;;;;5013765;28;20077;-81
2021/08/22 15:00:45;;;;;;;5.00;1.80;;;;;;;;;;5013591;28;20081;-81
2021/08/22 15:03:14;;;;;;;7.13;2.30;;;;;;;;;;5013840;28;20064;-81
2021/08/22 15:05:41;;;;;;;5.55;1.60;;;;;;;;;;5014458;28;20100;-82